sensor_id;sensor_type;location;lat;lon;timestamp;temperature;humidity
20866;DHT22;10593;48.398;10.698;2023-07-08T00:00:50;24.30;42.30
20866;DHT22;10593;48.398;10.698;2023-07-08T00:03:17;24.30;41.90
20866;DHT22;10593;48.398;10.698;2023-07-08T00:05:44;24.30;41.80
20866;DHT22;10593;48.398;10.698;2023-07-08T00:08:19;24.30;42.00
20866;DHT22;10593;48.398;10.698;2023-07-08T00:10:46;24.30;42.10
20866;DHT22;10593;48.398;10.698;2023-07-08T00:13:12;24.20;42.10
20866;DHT22;10593;48.398;10.698;2023-07-08T00:15:39;24.20;42.30
20866;DHT22;10593;48.398;10.698;2023-07-08T00:18:16;24.20;42.30
20866;DHT22;10593;48.398;10.698;2023-07-08T00:20:47;24.10;42.60
20866;DHT22;10593;48.398;10.698;2023-07-08T00:23:15;24.10;42.50
20866;DHT22;10593;48.398;10.698;2023-07-08T00:25:41;24.10;42.80
20866;DHT22;10593;48.398;10.698;2023-07-08T00:28:21;24.00;43.00
20866;DHT22;10593;48.398;10.698;2023-07-08T00:30:47;24.00;43.30
20866;DHT22;10593;48.398;10.698;2023-07-08T00:33:14;24.00;43.00
20866;DHT22;10593;48.398;10.698;2023-07-08T00:35:43;24.00;43.10
20866;DHT22;10593;48.398;10.698;2023-07-08T00:38:25;23.90;43.10
20866;DHT22;10593;48.398;10.698;2023-07-08T00:43:51;23.90;42.80
20866;DHT22;10593;48.398;10.698;2023-07-08T00:47:10;23.90;42.80
20866;DHT22;10593;48.398;10.698;2023-07-08T00:52:28;23.90;42.90
20866;DHT22;10593;48.398;10.698;2023-07-08T00:55:00;23.80;43.10
20866;DHT22;10593;48.398;10.698;2023-07-08T00:57:32;23.80;43.30
20866;DHT22;10593;48.398;10.698;2023-07-08T01:00:07;23.80;43.50
20866;DHT22;10593;48.398;10.698;2023-07-08T01:02:40;23.80;43.60
20866;DHT22;10593;48.398;10.698;2023-07-08T01:05:17;23.80;43.50
20866;DHT22;10593;48.398;10.698;2023-07-08T01:07:50;23.70;43.30
20866;DHT22;10593;48.398;10.698;2023-07-08T01:10:24;23.70;43.30
20866;DHT22;10593;48.398;10.698;2023-07-08T01:12:57;23.70;43.40
20866;DHT22;10593;48.398;10.698;2023-07-08T01:15:30;23.70;43.50
20866;DHT22;10593;48.398;10.698;2023-07-08T01:17:58;23.70;43.40
20866;DHT22;10593;48.398;10.698;2023-07-08T01:20:25;23.60;43.30
20866;DHT22;10593;48.398;10.698;2023-07-08T01:22:50;23.60;43.20
20866;DHT22;10593;48.398;10.698;2023-07-08T01:25:16;23.60;43.40
20866;DHT22;10593;48.398;10.698;2023-07-08T01:27:46;23.50;43.40
20866;DHT22;10593;48.398;10.698;2023-07-08T01:30:14;23.50;43.40
20866;DHT22;10593;48.398;10.698;2023-07-08T01:32:46;23.50;43.50
20866;DHT22;10593;48.398;10.698;2023-07-08T01:35:15;23.50;43.60
20866;DHT22;10593;48.398;10.698;2023-07-08T01:37:46;23.40;43.50
20866;DHT22;10593;48.398;10.698;2023-07-08T01:40:24;23.40;43.70
20866;DHT22;10593;48.398;10.698;2023-07-08T01:42:53;23.30;43.60
20866;DHT22;10593;48.398;10.698;2023-07-08T01:45:22;23.30;43.50
20866;DHT22;10593;48.398;10.698;2023-07-08T01:47:53;23.30;43.60
20866;DHT22;10593;48.398;10.698;2023-07-08T01:50:25;23.30;43.60
20866;DHT22;10593;48.398;10.698;2023-07-08T01:52:53;23.30;43.50
20866;DHT22;10593;48.398;10.698;2023-07-08T01:55:25;23.30;43.40
20866;DHT22;10593;48.398;10.698;2023-07-08T01:57:54;23.20;43.40
20866;DHT22;10593;48.398;10.698;2023-07-08T02:00:21;23.20;43.30
20866;DHT22;10593;48.398;10.698;2023-07-08T02:02:48;23.10;43.20
20866;DHT22;10593;48.398;10.698;2023-07-08T02:05:15;23.10;43.20
20866;DHT22;10593;48.398;10.698;2023-07-08T02:07:41;23.10;43.20
20866;DHT22;10593;48.398;10.698;2023-07-08T02:10:07;23.10;43.30
20866;DHT22;10593;48.398;10.698;2023-07-08T02:12:33;23.10;43.40
20866;DHT22;10593;48.398;10.698;2023-07-08T02:15:02;23.00;43.10
20866;DHT22;10593;48.398;10.698;2023-07-08T02:17:28;23.00;43.00
20866;DHT22;10593;48.398;10.698;2023-07-08T02:19:55;22.90;42.90
20866;DHT22;10593;48.398;10.698;2023-07-08T02:22:21;22.90;42.50
20866;DHT22;10593;48.398;10.698;2023-07-08T02:24:47;22.90;42.50
20866;DHT22;10593;48.398;10.698;2023-07-08T02:27:13;22.90;42.50
20866;DHT22;10593;48.398;10.698;2023-07-08T02:29:39;22.80;42.50
20866;DHT22;10593;48.398;10.698;2023-07-08T02:32:05;22.80;42.80
20866;DHT22;10593;48.398;10.698;2023-07-08T02:34:32;22.80;42.90
20866;DHT22;10593;48.398;10.698;2023-07-08T02:36:57;22.80;42.90
20866;DHT22;10593;48.398;10.698;2023-07-08T02:39:24;22.80;42.90
20866;DHT22;10593;48.398;10.698;2023-07-08T02:41:50;22.80;42.90
20866;DHT22;10593;48.398;10.698;2023-07-08T02:44:15;22.80;43.20
20866;DHT22;10593;48.398;10.698;2023-07-08T02:46:41;22.80;43.40
20866;DHT22;10593;48.398;10.698;2023-07-08T02:49:06;22.70;43.50
20866;DHT22;10593;48.398;10.698;2023-07-08T02:51:33;22.70;43.60
20866;DHT22;10593;48.398;10.698;2023-07-08T02:53:58;22.70;43.80
20866;DHT22;10593;48.398;10.698;2023-07-08T02:56:24;22.70;44.00
20866;DHT22;10593;48.398;10.698;2023-07-08T02:58:52;22.80;44.30
20866;DHT22;10593;48.398;10.698;2023-07-08T03:01:18;22.70;44.40
20866;DHT22;10593;48.398;10.698;2023-07-08T03:03:45;22.70;44.60
20866;DHT22;10593;48.398;10.698;2023-07-08T03:06:11;22.70;44.60
20866;DHT22;10593;48.398;10.698;2023-07-08T03:08:37;22.70;44.50
20866;DHT22;10593;48.398;10.698;2023-07-08T03:11:04;22.70;44.60
20866;DHT22;10593;48.398;10.698;2023-07-08T03:13:32;22.80;44.70
20866;DHT22;10593;48.398;10.698;2023-07-08T03:16:00;22.70;44.60
20866;DHT22;10593;48.398;10.698;2023-07-08T03:18:28;22.70;44.60
20866;DHT22;10593;48.398;10.698;2023-07-08T03:20:55;22.70;44.70
20866;DHT22;10593;48.398;10.698;2023-07-08T03:23:22;22.70;44.90
20866;DHT22;10593;48.398;10.698;2023-07-08T03:25:49;22.60;45.00
20866;DHT22;10593;48.398;10.698;2023-07-08T03:28:15;22.60;45.00
20866;DHT22;10593;48.398;10.698;2023-07-08T03:30:43;22.60;45.10
20866;DHT22;10593;48.398;10.698;2023-07-08T03:33:10;22.60;45.00
20866;DHT22;10593;48.398;10.698;2023-07-08T03:35:37;22.60;45.00
20866;DHT22;10593;48.398;10.698;2023-07-08T03:38:04;22.60;45.00
20866;DHT22;10593;48.398;10.698;2023-07-08T03:40:30;22.60;45.10
20866;DHT22;10593;48.398;10.698;2023-07-08T03:42:56;22.60;45.10
20866;DHT22;10593;48.398;10.698;2023-07-08T03:45:22;22.60;45.00
20866;DHT22;10593;48.398;10.698;2023-07-08T03:47:48;22.50;44.60
20866;DHT22;10593;48.398;10.698;2023-07-08T03:50:19;22.50;44.50
20866;DHT22;10593;48.398;10.698;2023-07-08T03:52:47;22.50;44.00
20866;DHT22;10593;48.398;10.698;2023-07-08T03:55:14;22.60;43.80
20866;DHT22;10593;48.398;10.698;2023-07-08T03:57:40;22.50;43.70
20866;DHT22;10593;48.398;10.698;2023-07-08T04:00:07;22.50;43.60
20866;DHT22;10593;48.398;10.698;2023-07-08T04:02:35;22.50;43.70
20866;DHT22;10593;48.398;10.698;2023-07-08T04:05:02;22.50;43.70
20866;DHT22;10593;48.398;10.698;2023-07-08T04:07:29;22.50;43.60
20866;DHT22;10593;48.398;10.698;2023-07-08T04:09:54;22.50;43.70
20866;DHT22;10593;48.398;10.698;2023-07-08T04:12:21;22.50;43.80
20866;DHT22;10593;48.398;10.698;2023-07-08T04:14:46;22.60;43.90
20866;DHT22;10593;48.398;10.698;2023-07-08T04:17:12;22.60;43.90
20866;DHT22;10593;48.398;10.698;2023-07-08T04:19:39;22.60;44.00
20866;DHT22;10593;48.398;10.698;2023-07-08T04:22:09;22.60;44.30
20866;DHT22;10593;48.398;10.698;2023-07-08T04:24:35;22.60;44.60
20866;DHT22;10593;48.398;10.698;2023-07-08T04:27:02;22.60;45.30
20866;DHT22;10593;48.398;10.698;2023-07-08T04:29:28;22.60;44.80
20866;DHT22;10593;48.398;10.698;2023-07-08T04:31:54;22.70;45.00
20866;DHT22;10593;48.398;10.698;2023-07-08T04:34:19;22.70;45.00
20866;DHT22;10593;48.398;10.698;2023-07-08T04:36:45;22.70;44.70
20866;DHT22;10593;48.398;10.698;2023-07-08T04:39:12;22.70;45.30
20866;DHT22;10593;48.398;10.698;2023-07-08T04:41:39;22.70;45.50
20866;DHT22;10593;48.398;10.698;2023-07-08T04:44:12;22.70;45.80
20866;DHT22;10593;48.398;10.698;2023-07-08T04:46:45;22.70;46.20
20866;DHT22;10593;48.398;10.698;2023-07-08T04:49:16;22.70;46.60
20866;DHT22;10593;48.398;10.698;2023-07-08T04:51:43;22.70;46.70
20866;DHT22;10593;48.398;10.698;2023-07-08T04:54:09;22.70;46.90
20866;DHT22;10593;48.398;10.698;2023-07-08T04:56:46;22.70;46.90
20866;DHT22;10593;48.398;10.698;2023-07-08T04:59:20;22.70;47.30
20866;DHT22;10593;48.398;10.698;2023-07-08T05:01:47;22.70;47.40
20866;DHT22;10593;48.398;10.698;2023-07-08T05:04:15;22.70;47.30
20866;DHT22;10593;48.398;10.698;2023-07-08T05:06:42;22.70;47.00
20866;DHT22;10593;48.398;10.698;2023-07-08T05:09:08;22.60;46.80
20866;DHT22;10593;48.398;10.698;2023-07-08T05:11:35;22.70;46.90
20866;DHT22;10593;48.398;10.698;2023-07-08T05:14:02;22.70;46.80
20866;DHT22;10593;48.398;10.698;2023-07-08T05:16:29;22.70;46.80
20866;DHT22;10593;48.398;10.698;2023-07-08T05:18:55;22.70;46.80
20866;DHT22;10593;48.398;10.698;2023-07-08T05:21:21;22.70;46.80
20866;DHT22;10593;48.398;10.698;2023-07-08T05:23:47;22.70;46.80
20866;DHT22;10593;48.398;10.698;2023-07-08T05:26:17;22.70;46.90
20866;DHT22;10593;48.398;10.698;2023-07-08T05:28:42;22.80;47.10
20866;DHT22;10593;48.398;10.698;2023-07-08T05:31:08;22.80;47.30
20866;DHT22;10593;48.398;10.698;2023-07-08T05:33:34;22.80;47.40
20866;DHT22;10593;48.398;10.698;2023-07-08T05:36:00;22.80;47.50
20866;DHT22;10593;48.398;10.698;2023-07-08T05:38:27;22.80;47.40
20866;DHT22;10593;48.398;10.698;2023-07-08T05:40:57;22.90;47.50
20866;DHT22;10593;48.398;10.698;2023-07-08T05:43:25;22.90;47.40
20866;DHT22;10593;48.398;10.698;2023-07-08T05:45:51;22.90;47.10
20866;DHT22;10593;48.398;10.698;2023-07-08T05:48:17;22.90;47.00
20866;DHT22;10593;48.398;10.698;2023-07-08T05:50:45;23.00;47.00
20866;DHT22;10593;48.398;10.698;2023-07-08T05:53:11;23.00;47.10
20866;DHT22;10593;48.398;10.698;2023-07-08T05:55:38;23.00;47.10
20866;DHT22;10593;48.398;10.698;2023-07-08T05:58:05;23.10;47.00
20866;DHT22;10593;48.398;10.698;2023-07-08T06:00:31;23.10;46.70
20866;DHT22;10593;48.398;10.698;2023-07-08T06:02:56;23.20;46.80
20866;DHT22;10593;48.398;10.698;2023-07-08T06:05:22;23.30;46.40
20866;DHT22;10593;48.398;10.698;2023-07-08T06:07:48;23.30;46.40
20866;DHT22;10593;48.398;10.698;2023-07-08T06:10:13;23.40;46.10
20866;DHT22;10593;48.398;10.698;2023-07-08T06:12:39;23.40;45.80
20866;DHT22;10593;48.398;10.698;2023-07-08T06:15:05;23.50;45.60
20866;DHT22;10593;48.398;10.698;2023-07-08T06:17:31;23.50;45.40
20866;DHT22;10593;48.398;10.698;2023-07-08T06:19:56;23.60;45.40
20866;DHT22;10593;48.398;10.698;2023-07-08T06:22:22;23.60;45.40
20866;DHT22;10593;48.398;10.698;2023-07-08T06:24:48;23.70;45.50
20866;DHT22;10593;48.398;10.698;2023-07-08T06:27:14;23.70;45.50
20866;DHT22;10593;48.398;10.698;2023-07-08T06:29:40;23.80;45.60
20866;DHT22;10593;48.398;10.698;2023-07-08T06:32:07;23.80;45.60
20866;DHT22;10593;48.398;10.698;2023-07-08T06:34:33;23.80;45.60
20866;DHT22;10593;48.398;10.698;2023-07-08T06:36:58;23.90;46.00
20866;DHT22;10593;48.398;10.698;2023-07-08T06:39:24;23.90;46.50
20866;DHT22;10593;48.398;10.698;2023-07-08T06:41:50;23.80;46.40
20866;DHT22;10593;48.398;10.698;2023-07-08T06:44:15;23.90;46.20
20866;DHT22;10593;48.398;10.698;2023-07-08T06:46:41;23.90;45.90
20866;DHT22;10593;48.398;10.698;2023-07-08T06:49:07;23.90;45.80
20866;DHT22;10593;48.398;10.698;2023-07-08T06:51:35;23.90;45.60
20866;DHT22;10593;48.398;10.698;2023-07-08T06:54:01;23.90;45.60
20866;DHT22;10593;48.398;10.698;2023-07-08T06:56:39;23.90;45.70
20866;DHT22;10593;48.398;10.698;2023-07-08T06:59:07;23.90;45.40
20866;DHT22;10593;48.398;10.698;2023-07-08T07:01:34;23.90;45.40
20866;DHT22;10593;48.398;10.698;2023-07-08T07:03:59;23.90;45.30
20866;DHT22;10593;48.398;10.698;2023-07-08T07:06:26;23.80;45.20
20866;DHT22;10593;48.398;10.698;2023-07-08T07:08:51;23.90;45.30
20866;DHT22;10593;48.398;10.698;2023-07-08T07:11:17;23.80;45.20
20866;DHT22;10593;48.398;10.698;2023-07-08T07:13:45;23.80;45.30
20866;DHT22;10593;48.398;10.698;2023-07-08T07:16:11;23.80;45.10
20866;DHT22;10593;48.398;10.698;2023-07-08T07:18:36;23.90;45.00
20866;DHT22;10593;48.398;10.698;2023-07-08T07:21:02;23.80;45.00
20866;DHT22;10593;48.398;10.698;2023-07-08T07:23:28;23.80;44.80
20866;DHT22;10593;48.398;10.698;2023-07-08T07:25:53;23.80;45.00
20866;DHT22;10593;48.398;10.698;2023-07-08T07:28:19;23.90;45.10
20866;DHT22;10593;48.398;10.698;2023-07-08T07:30:46;23.90;45.00
20866;DHT22;10593;48.398;10.698;2023-07-08T07:33:12;23.90;45.20
20866;DHT22;10593;48.398;10.698;2023-07-08T07:35:45;23.90;45.00
20866;DHT22;10593;48.398;10.698;2023-07-08T07:38:13;23.90;45.00
20866;DHT22;10593;48.398;10.698;2023-07-08T07:40:40;23.90;45.20
20866;DHT22;10593;48.398;10.698;2023-07-08T07:43:05;23.90;45.60
20866;DHT22;10593;48.398;10.698;2023-07-08T07:45:31;23.90;45.00
20866;DHT22;10593;48.398;10.698;2023-07-08T07:47:57;23.90;44.90
20866;DHT22;10593;48.398;10.698;2023-07-08T07:50:23;23.90;45.00
20866;DHT22;10593;48.398;10.698;2023-07-08T07:52:48;23.90;45.30
20866;DHT22;10593;48.398;10.698;2023-07-08T07:55:14;23.90;45.40
20866;DHT22;10593;48.398;10.698;2023-07-08T07:57:40;23.90;45.40
20866;DHT22;10593;48.398;10.698;2023-07-08T08:00:07;23.90;45.60
20866;DHT22;10593;48.398;10.698;2023-07-08T08:02:36;23.90;45.70
20866;DHT22;10593;48.398;10.698;2023-07-08T08:05:02;23.90;45.60
20866;DHT22;10593;48.398;10.698;2023-07-08T08:07:28;23.90;45.70
20866;DHT22;10593;48.398;10.698;2023-07-08T08:09:54;23.90;45.90
20866;DHT22;10593;48.398;10.698;2023-07-08T08:12:20;24.00;45.80
20866;DHT22;10593;48.398;10.698;2023-07-08T08:14:50;24.00;45.90
20866;DHT22;10593;48.398;10.698;2023-07-08T08:17:16;24.00;46.20
20866;DHT22;10593;48.398;10.698;2023-07-08T08:19:42;24.00;46.30
20866;DHT22;10593;48.398;10.698;2023-07-08T08:22:07;24.10;46.50
20866;DHT22;10593;48.398;10.698;2023-07-08T08:24:34;24.10;46.20
20866;DHT22;10593;48.398;10.698;2023-07-08T08:26:59;24.10;46.20
20866;DHT22;10593;48.398;10.698;2023-07-08T08:29:25;24.10;46.20
20866;DHT22;10593;48.398;10.698;2023-07-08T08:31:51;24.10;45.90
20866;DHT22;10593;48.398;10.698;2023-07-08T08:34:17;24.20;45.90
20866;DHT22;10593;48.398;10.698;2023-07-08T08:36:43;24.20;45.90
20866;DHT22;10593;48.398;10.698;2023-07-08T08:39:09;24.20;45.70
20866;DHT22;10593;48.398;10.698;2023-07-08T08:41:37;24.20;45.60
20866;DHT22;10593;48.398;10.698;2023-07-08T08:44:10;24.30;45.60
20866;DHT22;10593;48.398;10.698;2023-07-08T08:47:01;24.30;45.50
20866;DHT22;10593;48.398;10.698;2023-07-08T08:50:03;24.40;45.60
20866;DHT22;10593;48.398;10.698;2023-07-08T08:52:40;24.40;45.50
20866;DHT22;10593;48.398;10.698;2023-07-08T08:55:12;24.50;45.30
20866;DHT22;10593;48.398;10.698;2023-07-08T08:57:47;24.50;45.30
20866;DHT22;10593;48.398;10.698;2023-07-08T09:00:40;24.60;45.30
20866;DHT22;10593;48.398;10.698;2023-07-08T09:03:16;24.60;45.30
20866;DHT22;10593;48.398;10.698;2023-07-08T09:05:45;24.60;45.10
20866;DHT22;10593;48.398;10.698;2023-07-08T09:08:31;24.70;45.30
20866;DHT22;10593;48.398;10.698;2023-07-08T09:11:01;24.70;45.10
20866;DHT22;10593;48.398;10.698;2023-07-08T09:13:38;24.70;44.90
20866;DHT22;10593;48.398;10.698;2023-07-08T09:16:25;24.80;44.70
20866;DHT22;10593;48.398;10.698;2023-07-08T09:25:17;24.90;44.70
20866;DHT22;10593;48.398;10.698;2023-07-08T09:27:25;24.80;44.70
20866;DHT22;10593;48.398;10.698;2023-07-08T09:29:50;24.80;44.80
20866;DHT22;10593;48.398;10.698;2023-07-08T09:32:24;24.90;45.00
20866;DHT22;10593;48.398;10.698;2023-07-08T09:34:54;24.90;45.10
20866;DHT22;10593;48.398;10.698;2023-07-08T09:37:35;24.90;45.30
20866;DHT22;10593;48.398;10.698;2023-07-08T09:42:44;25.00;45.20
20866;DHT22;10593;48.398;10.698;2023-07-08T09:45:17;25.10;45.40
20866;DHT22;10593;48.398;10.698;2023-07-08T09:47:47;25.10;45.40
20866;DHT22;10593;48.398;10.698;2023-07-08T09:50:31;25.10;45.70
20866;DHT22;10593;48.398;10.698;2023-07-08T09:53:01;25.10;46.00
20866;DHT22;10593;48.398;10.698;2023-07-08T09:55:27;25.20;46.40
20866;DHT22;10593;48.398;10.698;2023-07-08T09:57:56;25.20;46.40
20866;DHT22;10593;48.398;10.698;2023-07-08T10:00:38;25.20;46.50
20866;DHT22;10593;48.398;10.698;2023-07-08T10:03:20;25.30;46.50
20866;DHT22;10593;48.398;10.698;2023-07-08T10:05:49;25.30;46.30
20866;DHT22;10593;48.398;10.698;2023-07-08T10:08:20;25.40;46.50
20866;DHT22;10593;48.398;10.698;2023-07-08T10:10:59;25.40;46.30
20866;DHT22;10593;48.398;10.698;2023-07-08T10:13:41;25.50;46.90
20866;DHT22;10593;48.398;10.698;2023-07-08T10:16:14;25.50;46.90
20866;DHT22;10593;48.398;10.698;2023-07-08T10:18:41;25.50;46.90
20866;DHT22;10593;48.398;10.698;2023-07-08T10:21:37;25.50;47.00
20866;DHT22;10593;48.398;10.698;2023-07-08T10:27:30;25.60;46.10
20866;DHT22;10593;48.398;10.698;2023-07-08T10:39:21;25.70;46.20
20866;DHT22;10593;48.398;10.698;2023-07-08T10:44:57;25.80;46.30
20866;DHT22;10593;48.398;10.698;2023-07-08T10:48:07;25.80;45.90
20866;DHT22;10593;48.398;10.698;2023-07-08T10:56:53;26.00;45.80
20866;DHT22;10593;48.398;10.698;2023-07-08T10:59:35;26.00;45.50
20866;DHT22;10593;48.398;10.698;2023-07-08T11:02:28;26.10;45.90
20866;DHT22;10593;48.398;10.698;2023-07-08T11:08:26;26.20;45.50
20866;DHT22;10593;48.398;10.698;2023-07-08T11:13:26;26.20;45.30
20866;DHT22;10593;48.398;10.698;2023-07-08T11:16:00;26.30;45.00
20866;DHT22;10593;48.398;10.698;2023-07-08T11:21:16;26.40;45.10
20866;DHT22;10593;48.398;10.698;2023-07-08T11:23:51;26.40;45.00
20866;DHT22;10593;48.398;10.698;2023-07-08T11:26:29;26.50;44.60
20866;DHT22;10593;48.398;10.698;2023-07-08T11:29:00;26.50;44.00
20866;DHT22;10593;48.398;10.698;2023-07-08T11:31:31;26.60;44.00
20866;DHT22;10593;48.398;10.698;2023-07-08T11:34:00;26.70;43.50
20866;DHT22;10593;48.398;10.698;2023-07-08T11:36:29;26.70;43.80
20866;DHT22;10593;48.398;10.698;2023-07-08T11:38:58;26.70;42.80
20866;DHT22;10593;48.398;10.698;2023-07-08T11:41:26;26.80;42.40
20866;DHT22;10593;48.398;10.698;2023-07-08T11:44:11;26.80;42.20
20866;DHT22;10593;48.398;10.698;2023-07-08T11:46:54;26.90;42.00
20866;DHT22;10593;48.398;10.698;2023-07-08T11:49:20;26.90;41.90
20866;DHT22;10593;48.398;10.698;2023-07-08T11:51:48;27.00;41.80
20866;DHT22;10593;48.398;10.698;2023-07-08T11:54:46;27.10;41.70
20866;DHT22;10593;48.398;10.698;2023-07-08T11:57:28;27.10;41.40
20866;DHT22;10593;48.398;10.698;2023-07-08T12:02:51;27.20;41.50
20866;DHT22;10593;48.398;10.698;2023-07-08T12:05:32;27.30;41.90
20866;DHT22;10593;48.398;10.698;2023-07-08T12:08:12;27.30;41.60
20866;DHT22;10593;48.398;10.698;2023-07-08T12:10:45;27.40;41.40
20866;DHT22;10593;48.398;10.698;2023-07-08T12:13:18;27.40;41.20
20866;DHT22;10593;48.398;10.698;2023-07-08T12:15:47;27.50;41.60
20866;DHT22;10593;48.398;10.698;2023-07-08T12:18:20;27.50;41.60
20866;DHT22;10593;48.398;10.698;2023-07-08T12:20:58;27.60;40.90
20866;DHT22;10593;48.398;10.698;2023-07-08T12:23:27;27.60;40.60
20866;DHT22;10593;48.398;10.698;2023-07-08T12:25:55;27.70;41.00
20866;DHT22;10593;48.398;10.698;2023-07-08T12:28:23;27.70;41.00
20866;DHT22;10593;48.398;10.698;2023-07-08T12:30:50;27.70;41.60
20866;DHT22;10593;48.398;10.698;2023-07-08T12:33:30;27.70;41.30
20866;DHT22;10593;48.398;10.698;2023-07-08T12:36:00;27.80;40.60
20866;DHT22;10593;48.398;10.698;2023-07-08T12:38:56;27.80;39.90
20866;DHT22;10593;48.398;10.698;2023-07-08T12:41:30;27.90;40.00
20866;DHT22;10593;48.398;10.698;2023-07-08T12:43:59;27.90;39.70
20866;DHT22;10593;48.398;10.698;2023-07-08T12:46:27;28.00;40.40
20866;DHT22;10593;48.398;10.698;2023-07-08T12:48:54;28.00;40.10
20866;DHT22;10593;48.398;10.698;2023-07-08T12:51:25;28.10;39.80
20866;DHT22;10593;48.398;10.698;2023-07-08T12:53:54;28.10;39.60
20866;DHT22;10593;48.398;10.698;2023-07-08T12:56:23;28.20;39.80
20866;DHT22;10593;48.398;10.698;2023-07-08T12:58:52;28.20;39.60
20866;DHT22;10593;48.398;10.698;2023-07-08T13:01:22;28.20;39.80
20866;DHT22;10593;48.398;10.698;2023-07-08T13:03:53;28.20;39.50
20866;DHT22;10593;48.398;10.698;2023-07-08T13:06:32;28.30;39.20
20866;DHT22;10593;48.398;10.698;2023-07-08T13:09:07;28.30;38.60
20866;DHT22;10593;48.398;10.698;2023-07-08T13:11:44;28.40;38.20
20866;DHT22;10593;48.398;10.698;2023-07-08T13:14:12;28.40;37.90
20866;DHT22;10593;48.398;10.698;2023-07-08T13:16:40;28.40;37.40
20866;DHT22;10593;48.398;10.698;2023-07-08T13:19:10;28.40;37.50
20866;DHT22;10593;48.398;10.698;2023-07-08T13:21:38;28.50;37.10
20866;DHT22;10593;48.398;10.698;2023-07-08T13:24:09;28.40;36.70
20866;DHT22;10593;48.398;10.698;2023-07-08T13:26:38;28.50;36.90
20866;DHT22;10593;48.398;10.698;2023-07-08T13:29:12;28.50;37.10
20866;DHT22;10593;48.398;10.698;2023-07-08T13:31:43;28.60;36.90
20866;DHT22;10593;48.398;10.698;2023-07-08T13:34:18;28.60;37.00
20866;DHT22;10593;48.398;10.698;2023-07-08T13:36:48;28.60;37.20
20866;DHT22;10593;48.398;10.698;2023-07-08T13:39:25;28.60;37.00
20866;DHT22;10593;48.398;10.698;2023-07-08T13:41:55;28.70;36.30
20866;DHT22;10593;48.398;10.698;2023-07-08T13:44:21;28.70;37.60
20866;DHT22;10593;48.398;10.698;2023-07-08T13:46:53;28.80;37.50
20866;DHT22;10593;48.398;10.698;2023-07-08T13:49:26;28.70;37.20
20866;DHT22;10593;48.398;10.698;2023-07-08T13:52:13;28.80;37.00
20866;DHT22;10593;48.398;10.698;2023-07-08T13:57:29;28.80;36.10
20866;DHT22;10593;48.398;10.698;2023-07-08T13:59:57;28.90;36.30
20866;DHT22;10593;48.398;10.698;2023-07-08T14:02:26;28.90;36.10
20866;DHT22;10593;48.398;10.698;2023-07-08T14:04:56;28.90;36.50
20866;DHT22;10593;48.398;10.698;2023-07-08T14:07:29;28.90;37.00
20866;DHT22;10593;48.398;10.698;2023-07-08T14:09:57;28.90;36.40
20866;DHT22;10593;48.398;10.698;2023-07-08T14:12:23;28.90;36.30
20866;DHT22;10593;48.398;10.698;2023-07-08T14:14:49;28.90;36.00
20866;DHT22;10593;48.398;10.698;2023-07-08T14:17:20;28.90;35.50
20866;DHT22;10593;48.398;10.698;2023-07-08T14:19:48;28.90;35.40
20866;DHT22;10593;48.398;10.698;2023-07-08T14:24:50;29.00;35.10
20866;DHT22;10593;48.398;10.698;2023-07-08T14:27:16;29.00;35.30
20866;DHT22;10593;48.398;10.698;2023-07-08T14:29:45;29.00;35.10
20866;DHT22;10593;48.398;10.698;2023-07-08T14:32:14;29.00;35.10
20866;DHT22;10593;48.398;10.698;2023-07-08T14:34:49;29.10;35.40
20866;DHT22;10593;48.398;10.698;2023-07-08T14:37:18;29.10;35.70
20866;DHT22;10593;48.398;10.698;2023-07-08T14:39:44;29.10;35.20
20866;DHT22;10593;48.398;10.698;2023-07-08T14:42:12;29.10;35.20
20866;DHT22;10593;48.398;10.698;2023-07-08T14:44:41;29.10;35.10
20866;DHT22;10593;48.398;10.698;2023-07-08T14:47:17;29.10;34.50
20866;DHT22;10593;48.398;10.698;2023-07-08T14:49:43;29.10;34.10
20866;DHT22;10593;48.398;10.698;2023-07-08T14:52:10;29.20;33.80
20866;DHT22;10593;48.398;10.698;2023-07-08T14:54:35;29.20;33.70
20866;DHT22;10593;48.398;10.698;2023-07-08T14:57:02;29.20;34.00
20866;DHT22;10593;48.398;10.698;2023-07-08T14:59:32;29.20;34.30
20866;DHT22;10593;48.398;10.698;2023-07-08T15:01:59;29.30;34.20
20866;DHT22;10593;48.398;10.698;2023-07-08T15:04:27;29.30;34.30
20866;DHT22;10593;48.398;10.698;2023-07-08T15:06:54;29.30;34.50
20866;DHT22;10593;48.398;10.698;2023-07-08T15:09:24;29.30;34.60
20866;DHT22;10593;48.398;10.698;2023-07-08T15:11:50;29.30;33.80
20866;DHT22;10593;48.398;10.698;2023-07-08T15:14:19;29.40;33.60
20866;DHT22;10593;48.398;10.698;2023-07-08T15:16:50;29.40;33.50
20866;DHT22;10593;48.398;10.698;2023-07-08T15:19:18;29.40;33.80
20866;DHT22;10593;48.398;10.698;2023-07-08T15:21:45;29.40;34.10
20866;DHT22;10593;48.398;10.698;2023-07-08T15:24:12;29.50;33.90
20866;DHT22;10593;48.398;10.698;2023-07-08T15:26:46;29.50;33.90
20866;DHT22;10593;48.398;10.698;2023-07-08T15:29:19;29.50;33.80
20866;DHT22;10593;48.398;10.698;2023-07-08T15:31:47;29.50;33.40
20866;DHT22;10593;48.398;10.698;2023-07-08T15:34:14;29.50;33.20
20866;DHT22;10593;48.398;10.698;2023-07-08T15:36:42;29.50;33.40
20866;DHT22;10593;48.398;10.698;2023-07-08T15:39:07;29.50;33.00
20866;DHT22;10593;48.398;10.698;2023-07-08T15:41:34;29.50;33.10
20866;DHT22;10593;48.398;10.698;2023-07-08T15:44:00;29.50;33.00
20866;DHT22;10593;48.398;10.698;2023-07-08T15:46:32;29.50;33.40
20866;DHT22;10593;48.398;10.698;2023-07-08T15:49:01;29.50;33.60
20866;DHT22;10593;48.398;10.698;2023-07-08T15:51:35;29.50;34.00
20866;DHT22;10593;48.398;10.698;2023-07-08T15:54:01;29.60;33.80
20866;DHT22;10593;48.398;10.698;2023-07-08T15:56:27;29.60;34.00
20866;DHT22;10593;48.398;10.698;2023-07-08T15:58:52;29.60;34.40
20866;DHT22;10593;48.398;10.698;2023-07-08T16:01:21;29.60;34.00
20866;DHT22;10593;48.398;10.698;2023-07-08T16:03:48;29.60;34.00
20866;DHT22;10593;48.398;10.698;2023-07-08T16:06:16;29.60;33.70
20866;DHT22;10593;48.398;10.698;2023-07-08T16:08:43;29.60;33.70
20866;DHT22;10593;48.398;10.698;2023-07-08T16:11:28;29.60;34.30
20866;DHT22;10593;48.398;10.698;2023-07-08T16:13:56;29.60;34.40
20866;DHT22;10593;48.398;10.698;2023-07-08T16:16:23;29.70;34.30
20866;DHT22;10593;48.398;10.698;2023-07-08T16:18:49;29.70;34.50
20866;DHT22;10593;48.398;10.698;2023-07-08T16:21:15;29.70;33.90
20866;DHT22;10593;48.398;10.698;2023-07-08T16:23:41;29.70;33.90